createdAt,value
2022-10-05T00:02:41.486Z,66.17
2022-10-05T00:05:34.244Z,66.18
2022-10-05T00:08:25.142Z,66.19
2022-10-05T00:11:13.987Z,66.27
2022-10-05T00:14:07.339Z,66.21
2022-10-05T00:16:56.874Z,66.21
2022-10-05T00:19:46.563Z,66.35
2022-10-05T00:22:35.314Z,66.29
2022-10-05T00:25:23.638Z,66.24
2022-10-05T00:28:27.948Z,66.28
2022-10-05T00:31:25.192Z,66.20
2022-10-05T00:34:13.474Z,66.41
2022-10-05T00:37:01.456Z,66.38
2022-10-05T00:39:49.630Z,66.49
2022-10-05T00:43:07.464Z,66.49
2022-10-05T00:46:07.689Z,66.62
2022-10-05T00:49:01.977Z,66.43
2022-10-05T00:52:22.252Z,66.67
2022-10-05T00:55:30.312Z,66.38
2022-10-05T00:58:35.307Z,66.40
2022-10-05T01:01:26.036Z,66.30
2022-10-05T01:04:21.083Z,66.27
2022-10-05T01:07:39.983Z,66.26
2022-10-05T01:11:04.100Z,66.20
2022-10-05T01:14:16.948Z,66.19
2022-10-05T01:17:04.780Z,66.20
2022-10-05T01:20:11.483Z,66.41
2022-10-05T01:23:11.709Z,66.43
2022-10-05T01:26:24.936Z,66.34
2022-10-05T01:29:31.290Z,66.34
2022-10-05T01:32:31.244Z,66.38
2022-10-05T01:35:39.002Z,66.36
2022-10-05T01:38:52.725Z,66.33
2022-10-05T01:42:06.632Z,66.31
2022-10-05T01:45:14.179Z,66.36
2022-10-05T01:48:22.524Z,66.33
2022-10-05T01:51:31.417Z,66.12
2022-10-05T01:54:40.204Z,66.32
2022-10-05T01:57:46.641Z,66.41
2022-10-05T02:00:54.853Z,66.36
2022-10-05T02:04:18.678Z,66.60
2022-10-05T02:07:35.143Z,66.84
2022-10-05T02:10:32.857Z,66.67
2022-10-05T02:13:58.642Z,66.80
2022-10-05T02:16:49.529Z,66.82
2022-10-05T02:19:48.814Z,67.07
2022-10-05T02:22:45.981Z,66.92
2022-10-05T02:25:38.984Z,66.89
2022-10-05T02:28:47.731Z,66.79
2022-10-05T02:31:45.225Z,66.86
2022-10-05T02:34:38.857Z,66.83
2022-10-05T02:37:56.375Z,67.02
2022-10-05T02:41:02.868Z,67.24
2022-10-05T02:44:05.749Z,67.24
2022-10-05T02:47:19.784Z,67.33
2022-10-05T02:50:46.909Z,67.32
2022-10-05T02:53:44.723Z,67.37
2022-10-05T02:56:52.545Z,67.53
2022-10-05T02:59:48.058Z,67.48
2022-10-05T03:02:44.561Z,67.41
2022-10-05T03:05:40.392Z,67.51
2022-10-05T03:08:35.193Z,67.70
2022-10-05T03:11:46.926Z,67.83
2022-10-05T03:15:01.964Z,67.90
2022-10-05T03:18:08.802Z,68.02
2022-10-05T03:21:15.627Z,67.98
2022-10-05T03:24:45.009Z,68.13
2022-10-05T03:27:42.325Z,68.15
2022-10-05T03:30:37.501Z,68.17
2022-10-05T03:33:29.037Z,68.03
2022-10-05T03:36:37.533Z,68.26
2022-10-05T03:39:42.057Z,68.03
2022-10-05T03:42:37.446Z,68.19
2022-10-05T03:45:30.419Z,68.10
2022-10-05T03:48:33.743Z,68.18
2022-10-05T03:51:51.669Z,68.12
2022-10-05T03:55:03.492Z,68.26
2022-10-05T03:57:56.726Z,68.25
2022-10-05T04:00:52.355Z,68.26
2022-10-05T04:03:48.367Z,68.29
2022-10-05T04:06:42.755Z,68.22
2022-10-05T04:09:37.058Z,68.21
2022-10-05T04:12:49.561Z,68.21
2022-10-05T04:15:46.333Z,68.22
2022-10-05T04:18:43.837Z,68.14
2022-10-05T04:21:52.861Z,68.28
2022-10-05T04:25:00.778Z,68.15
2022-10-05T04:28:01.441Z,68.12
2022-10-05T04:30:52.424Z,68.10
2022-10-05T04:33:41.007Z,68.07
2022-10-05T04:36:39.070Z,68.09
2022-10-05T04:39:54.164Z,68.29
2022-10-05T04:42:51.941Z,68.18
2022-10-05T04:45:49.967Z,68.00
2022-10-05T04:49:08.727Z,68.07
2022-10-05T04:52:22.708Z,67.85
2022-10-05T04:55:23.225Z,67.97
2022-10-05T04:58:41.531Z,67.99
2022-10-05T05:02:01.683Z,67.81
2022-10-05T05:05:01.588Z,67.53
2022-10-05T05:08:17.303Z,67.64
2022-10-05T05:12:04.015Z,67.60
2022-10-05T05:15:13.612Z,67.60
2022-10-05T05:18:01.750Z,67.42
2022-10-05T05:21:28.940Z,67.39
2022-10-05T05:24:47.298Z,67.27
2022-10-05T05:27:51.202Z,66.95
2022-10-05T05:30:50.545Z,67.13
2022-10-05T05:33:59.151Z,67.34
2022-10-05T05:37:04.580Z,67.22
2022-10-05T05:39:59.424Z,67.17
2022-10-05T05:43:01.935Z,67.11
2022-10-05T05:46:07.339Z,66.86
2022-10-05T05:48:58.061Z,66.84
2022-10-05T05:51:55.623Z,66.95
2022-10-05T05:54:57.887Z,66.54
2022-10-05T05:58:04.483Z,66.70
2022-10-05T06:00:52.594Z,66.79
2022-10-05T06:03:47.367Z,66.75
2022-10-05T06:06:41.983Z,66.90
2022-10-05T06:10:30.024Z,66.91
2022-10-05T06:13:30.705Z,66.66
2022-10-05T06:16:36.872Z,66.55
2022-10-05T06:19:28.294Z,66.68
2022-10-05T06:22:47.902Z,66.50
2022-10-05T06:26:08.264Z,66.38
2022-10-05T06:29:04.045Z,66.05
2022-10-05T06:32:48.848Z,65.89
2022-10-05T06:35:46.284Z,65.68
2022-10-05T06:39:08.911Z,65.53
2022-10-05T06:42:20.158Z,65.44
2022-10-05T06:46:05.579Z,65.02
2022-10-05T06:49:33.881Z,64.65
2022-10-05T06:53:29.302Z,64.39
2022-10-05T06:56:26.668Z,63.95
2022-10-05T06:59:31.722Z,64.11
2022-10-05T07:02:32.673Z,64.21
2022-10-05T07:05:47.918Z,63.83
2022-10-05T07:08:35.831Z,63.28
2022-10-05T07:11:58.509Z,63.32
2022-10-05T07:14:56.049Z,63.49
2022-10-05T07:17:49.442Z,63.53
2022-10-05T07:21:12.896Z,62.95
2022-10-05T07:24:23.415Z,63.30
2022-10-05T07:27:21.294Z,63.31
2022-10-05T07:30:14.845Z,63.07
2022-10-05T07:33:33.681Z,62.84
2022-10-05T07:37:00.606Z,62.58
2022-10-05T07:40:10.028Z,62.49
2022-10-05T07:43:35.933Z,62.03
2022-10-05T07:46:54.330Z,61.60
2022-10-05T07:49:49.952Z,61.58
2022-10-05T07:52:41.466Z,61.38
2022-10-05T07:55:44.438Z,61.22
2022-10-05T07:58:43.245Z,61.35
2022-10-05T08:01:36.799Z,61.37
2022-10-05T08:04:32.069Z,61.84
2022-10-05T08:07:20.411Z,61.70
2022-10-05T08:10:14.499Z,61.26
2022-10-05T08:13:05.236Z,60.79
2022-10-05T08:16:00.451Z,60.96
2022-10-05T08:19:03.177Z,61.15
2022-10-05T08:22:10.054Z,61.81
2022-10-05T08:25:04.327Z,62.54
2022-10-05T08:28:04.024Z,62.71
2022-10-05T08:31:15.329Z,62.92
2022-10-05T08:34:31.117Z,63.16
2022-10-05T08:37:23.926Z,62.80
2022-10-05T08:40:37.531Z,62.54
2022-10-05T08:43:45.012Z,62.79
2022-10-05T08:47:10.678Z,62.78
2022-10-05T08:54:16.988Z,64.16
2022-10-05T08:57:35.932Z,64.60
2022-10-05T09:00:26.039Z,64.66
2022-10-05T09:03:36.590Z,64.31
2022-10-05T09:06:33.635Z,64.09
2022-10-05T09:09:40.737Z,63.81
2022-10-05T09:12:47.968Z,64.01
2022-10-05T09:16:06.387Z,63.86
2022-10-05T09:19:19.109Z,64.66
2022-10-05T09:22:34.115Z,64.65
2022-10-05T09:25:41.924Z,64.56
2022-10-05T09:29:08.435Z,64.48
2022-10-05T09:32:35.485Z,64.14
2022-10-05T09:35:38.738Z,64.27
2022-10-05T09:38:32.463Z,64.41
2022-10-05T09:41:48.305Z,63.95
2022-10-05T09:45:21.330Z,63.25
2022-10-05T09:48:43.272Z,62.77
2022-10-05T09:52:00.523Z,62.41
2022-10-05T09:55:02.987Z,62.71
2022-10-05T09:57:59.853Z,62.51
2022-10-05T10:01:29.095Z,62.58
2022-10-05T10:04:37.562Z,62.45
2022-10-05T10:07:40.545Z,62.75
2022-10-05T10:10:48.606Z,62.86
2022-10-05T10:13:45.812Z,63.06
2022-10-05T10:17:03.124Z,62.81
2022-10-05T10:19:58.801Z,62.76
2022-10-05T10:23:09.978Z,62.70
2022-10-05T10:26:13.935Z,62.16
2022-10-05T10:29:22.078Z,62.17
2022-10-05T10:32:29.167Z,62.06
2022-10-05T10:35:37.103Z,62.33
2022-10-05T10:38:47.291Z,62.08
2022-10-05T10:41:54.419Z,62.13
2022-10-05T10:45:01.007Z,61.73
2022-10-05T10:47:51.865Z,60.80
2022-10-05T10:50:52.455Z,59.95
2022-10-05T10:53:54.067Z,58.95
2022-10-05T10:57:26.813Z,58.55
2022-10-05T11:00:37.891Z,58.91
2022-10-05T11:03:39.164Z,59.09
2022-10-05T11:06:44.912Z,58.95
2022-10-05T11:10:30.158Z,59.28
2022-10-05T11:13:41.975Z,59.52
2022-10-05T11:16:44.875Z,59.53
2022-10-05T11:19:40.107Z,59.55
2022-10-05T11:22:40.228Z,58.85
2022-10-05T11:25:54.483Z,59.61
2022-10-05T11:29:01.895Z,59.59
2022-10-05T11:32:14.322Z,59.27
2022-10-05T11:35:27.552Z,59.13
2022-10-05T11:38:50.591Z,58.80
2022-10-05T11:41:53.764Z,58.56
2022-10-05T11:45:07.772Z,58.89
2022-10-05T11:48:20.589Z,59.12
2022-10-05T11:51:46.508Z,59.16
2022-10-05T11:55:06.053Z,58.99
2022-10-05T11:57:51.581Z,58.56
2022-10-05T12:00:44.567Z,58.13
2022-10-05T12:03:41.664Z,57.86
2022-10-05T12:06:35.854Z,57.55
2022-10-05T12:09:36.896Z,57.91
2022-10-05T12:12:29.654Z,58.35
2022-10-05T12:15:43.438Z,58.60
2022-10-05T12:18:31.372Z,59.25
2022-10-05T12:21:34.518Z,59.81
2022-10-05T12:24:38.003Z,60.35
2022-10-05T12:27:31.406Z,60.36
2022-10-05T12:30:50.262Z,60.12
2022-10-05T12:34:04.523Z,59.41
2022-10-05T12:37:04.687Z,60.13
2022-10-05T12:40:02.647Z,60.10
2022-10-05T12:42:59.136Z,60.23
2022-10-05T12:46:01.353Z,60.78
2022-10-05T12:49:22.442Z,61.63
2022-10-05T12:52:43.470Z,62.46
2022-10-05T12:56:04.275Z,62.45
2022-10-05T12:58:56.136Z,62.67
2022-10-05T13:01:56.675Z,62.37
2022-10-05T13:05:12.926Z,62.06
2022-10-05T13:08:24.484Z,62.06
2022-10-05T13:11:36.380Z,62.30
2022-10-05T13:14:39.520Z,62.31
2022-10-05T13:17:58.946Z,62.54
2022-10-05T13:21:19.505Z,61.00
2022-10-05T13:24:19.689Z,56.33
2022-10-05T13:27:13.697Z,54.29
2022-10-05T13:30:17.038Z,52.94
2022-10-05T13:33:15.468Z,54.73
2022-10-05T13:36:18.780Z,57.43
2022-10-05T13:39:46.035Z,59.38
2022-10-05T13:43:00.214Z,60.64
2022-10-05T13:46:26.120Z,60.61
2022-10-05T13:49:22.231Z,61.07
2022-10-05T13:52:28.843Z,61.42
2022-10-05T13:55:50.124Z,61.70
2022-10-05T13:59:03.254Z,61.52
2022-10-05T14:02:05.132Z,62.01
2022-10-05T14:05:21.923Z,62.06
2022-10-05T14:08:17.801Z,62.24
2022-10-05T14:11:40.141Z,62.35
2022-10-05T14:14:30.002Z,62.26
2022-10-05T14:17:37.325Z,61.93
2022-10-05T14:20:31.869Z,62.08
2022-10-05T14:23:28.269Z,62.10
2022-10-05T14:26:25.910Z,62.27
2022-10-05T14:29:14.583Z,62.47
2022-10-05T14:32:11.667Z,62.87
2022-10-05T14:35:15.483Z,63.04
2022-10-05T14:38:18.721Z,63.18
2022-10-05T14:41:20.405Z,63.02
2022-10-05T14:44:14.110Z,63.20
2022-10-05T14:47:21.010Z,63.25
2022-10-05T14:50:29.847Z,63.41
2022-10-05T14:53:21.542Z,63.56
2022-10-05T14:56:35.520Z,63.53
2022-10-05T14:59:26.224Z,63.70
2022-10-05T15:02:45.205Z,64.12
2022-10-05T15:05:45.553Z,63.81
2022-10-05T15:08:39.226Z,64.20
2022-10-05T15:12:05.528Z,64.34
2022-10-05T15:15:06.789Z,64.24
2022-10-05T15:18:00.359Z,64.07
2022-10-05T15:21:14.404Z,64.10
2022-10-05T15:24:17.786Z,64.00
2022-10-05T15:27:30.104Z,63.99
2022-10-05T15:30:18.900Z,63.72
2022-10-05T15:33:27.915Z,63.71
2022-10-05T15:36:22.214Z,63.68
2022-10-05T15:39:11.006Z,63.71
2022-10-05T15:42:18.546Z,63.71
2022-10-05T15:45:38.200Z,63.66
2022-10-05T15:48:43.738Z,63.85
2022-10-05T15:52:02.416Z,63.73
2022-10-05T15:55:23.915Z,63.79
2022-10-05T15:58:35.603Z,63.74
2022-10-05T16:01:35.983Z,63.92
2022-10-05T16:04:39.126Z,63.77
2022-10-05T16:08:02.037Z,63.80
2022-10-05T16:10:49.850Z,64.07
2022-10-05T16:13:52.684Z,63.97
2022-10-05T16:17:17.397Z,63.95
2022-10-05T16:20:21.037Z,63.95
2022-10-05T16:23:32.140Z,64.13
2022-10-05T16:26:32.752Z,64.08
2022-10-05T16:29:33.393Z,64.08
2022-10-05T16:32:27.762Z,64.15
2022-10-05T16:35:26.596Z,64.06
2022-10-05T16:38:34.658Z,63.99
2022-10-05T16:41:41.244Z,63.93
2022-10-05T16:44:44.831Z,63.85
2022-10-05T16:47:35.879Z,64.06
2022-10-05T16:50:28.787Z,64.30
2022-10-05T16:53:25.974Z,64.64
2022-10-05T16:56:19.870Z,64.77
2022-10-05T16:59:25.410Z,65.12
2022-10-05T17:02:25.487Z,65.38
2022-10-05T17:05:41.690Z,65.44
2022-10-05T17:08:49.723Z,65.25
2022-10-05T17:12:36.345Z,65.33
2022-10-05T17:15:53.183Z,65.31
2022-10-05T17:19:19.611Z,65.41
2022-10-05T17:22:29.225Z,65.34
2022-10-05T17:25:49.720Z,65.38
2022-10-05T17:28:57.894Z,65.33
2022-10-05T17:32:09.885Z,65.07
2022-10-05T17:35:04.210Z,65.10
2022-10-05T17:38:31.044Z,65.16
2022-10-05T17:41:22.744Z,65.14
2022-10-05T17:44:16.357Z,65.13
2022-10-05T17:47:08.376Z,65.07
2022-10-05T17:50:18.550Z,65.11
2022-10-05T17:53:54.056Z,65.15
2022-10-05T17:56:47.941Z,65.11
2022-10-05T17:59:55.993Z,65.23
2022-10-05T18:02:43.899Z,65.06
2022-10-05T18:05:31.843Z,65.42
2022-10-05T18:08:28.943Z,65.42
2022-10-05T18:11:29.030Z,65.75
2022-10-05T18:14:23.200Z,65.84
2022-10-05T18:17:13.219Z,66.15
2022-10-05T18:20:26.557Z,66.18
2022-10-05T18:23:23.932Z,66.10
2022-10-05T18:26:59.655Z,65.93
2022-10-05T18:30:16.059Z,66.40
2022-10-05T18:33:24.391Z,66.08
2022-10-05T18:36:37.675Z,66.11
2022-10-05T18:39:56.082Z,66.24
2022-10-05T18:43:10.414Z,66.65
2022-10-05T18:46:41.121Z,66.66
2022-10-05T18:49:58.565Z,66.80
2022-10-05T18:53:09.142Z,66.75
2022-10-05T18:56:16.547Z,67.19
2022-10-05T18:59:25.961Z,67.30
2022-10-05T19:02:48.001Z,67.24
2022-10-05T19:05:58.749Z,67.45
2022-10-05T19:09:20.658Z,67.40
2022-10-05T19:12:55.568Z,67.61
2022-10-05T19:16:34.426Z,67.58
2022-10-05T19:19:51.411Z,67.68
2022-10-05T19:23:23.120Z,67.58
2022-10-05T19:26:23.746Z,67.68
2022-10-05T19:29:53.357Z,67.62
2022-10-05T19:32:59.766Z,67.31
2022-10-05T19:36:21.792Z,67.27
2022-10-05T19:39:21.611Z,67.18
2022-10-05T19:42:44.930Z,67.65
2022-10-05T19:45:39.993Z,67.28
2022-10-05T19:48:43.140Z,67.44
2022-10-05T19:51:49.669Z,67.06
2022-10-05T19:54:42.774Z,67.14
2022-10-05T19:57:32.686Z,67.19
2022-10-05T20:00:49.007Z,67.23
2022-10-05T20:03:38.281Z,67.32
2022-10-05T20:06:27.168Z,67.16
2022-10-05T20:09:21.010Z,67.15
2022-10-05T20:12:11.731Z,67.09
2022-10-05T20:15:37.151Z,67.15
2022-10-05T20:19:08.991Z,67.16
2022-10-05T20:21:59.328Z,67.18
2022-10-05T20:24:52.725Z,67.12
2022-10-05T20:27:41.276Z,67.28
2022-10-05T20:30:31.272Z,67.39
2022-10-05T20:33:19.671Z,67.34
2022-10-05T20:36:08.730Z,67.63
2022-10-05T20:39:18.877Z,67.70
2022-10-05T20:42:09.014Z,67.64
2022-10-05T20:44:58.182Z,68.18
2022-10-05T20:47:47.468Z,68.21
2022-10-05T20:50:35.664Z,68.02
2022-10-05T20:53:26.262Z,68.38
2022-10-05T20:56:14.402Z,68.41
2022-10-05T20:59:02.779Z,68.24
2022-10-05T21:01:51.237Z,68.49
2022-10-05T21:04:41.479Z,68.73
2022-10-05T21:07:31.357Z,68.50
2022-10-05T21:10:19.170Z,68.81
2022-10-05T21:13:07.235Z,68.65
2022-10-05T21:15:56.825Z,68.55
2022-10-05T21:18:47.965Z,68.94
2022-10-05T21:21:37.391Z,68.77
2022-10-05T21:24:25.558Z,68.81
2022-10-05T21:27:13.394Z,68.74
2022-10-05T21:30:01.550Z,68.78
2022-10-05T21:32:51.742Z,68.57
2022-10-05T21:35:39.717Z,68.87
2022-10-05T21:38:29.221Z,68.86
2022-10-05T21:41:18.335Z,68.91
2022-10-05T21:44:06.887Z,69.10
2022-10-05T21:46:57.107Z,69.18
2022-10-05T21:49:45.138Z,69.20
2022-10-05T21:52:35.673Z,69.30
2022-10-05T21:55:23.861Z,69.18
2022-10-05T21:58:14.669Z,69.21
2022-10-05T22:01:03.620Z,69.45
2022-10-05T22:03:52.548Z,69.63
2022-10-05T22:06:40.864Z,69.87
2022-10-05T22:09:30.088Z,69.86
2022-10-05T22:12:20.221Z,69.79
2022-10-05T22:15:09.698Z,69.96
2022-10-05T22:17:59.306Z,70.33
2022-10-05T22:20:48.010Z,70.26
2022-10-05T22:23:41.862Z,70.31
2022-10-05T22:26:30.655Z,70.25
2022-10-05T22:29:20.920Z,70.46
2022-10-05T22:32:10.481Z,70.73
2022-10-05T22:34:58.647Z,70.60
2022-10-05T22:37:46.710Z,70.78
2022-10-05T22:40:36.361Z,71.07
2022-10-05T22:43:27.657Z,71.18
2022-10-05T22:46:16.421Z,71.08
2022-10-05T22:49:04.596Z,71.24
2022-10-05T22:51:53.365Z,71.04
2022-10-05T22:54:41.571Z,71.03
2022-10-05T22:57:38.353Z,70.79
2022-10-05T23:00:40.342Z,71.08
2022-10-05T23:03:35.555Z,71.12
2022-10-05T23:06:27.821Z,70.88
2022-10-05T23:09:16.103Z,70.80
2022-10-05T23:12:04.603Z,70.90
2022-10-05T23:14:52.789Z,70.87
2022-10-05T23:17:41.628Z,70.71
2022-10-05T23:20:31.352Z,70.87
2022-10-05T23:23:19.961Z,70.98
2022-10-05T23:26:10.254Z,70.89
2022-10-05T23:28:58.916Z,70.86
2022-10-05T23:31:47.368Z,70.88
2022-10-05T23:34:36.203Z,70.96
2022-10-05T23:37:27.153Z,70.70
2022-10-05T23:40:17.881Z,70.96
2022-10-05T23:43:07.283Z,71.07
2022-10-05T23:45:59.404Z,71.11
2022-10-05T23:48:49.291Z,70.98
2022-10-05T23:51:38.123Z,70.87
2022-10-05T23:54:26.664Z,70.83
2022-10-05T23:57:19.878Z,70.77
